Time;durP1;ratioP1;P1;durP2;ratioP2;P2;SDS_P1;SDS_P2;PMS_P1;PMS_P2;Temp;Humidity;BMP_temperature;BMP_pressure;BME280_temperature;BME280_humidity;BME280_pressure;Samples;Min_cycle;Max_cycle;Signal;HPM_P1;HPM_P2
2021/01/14 05:16:30;;;;;;;1999.90;999.90;;;1.10;99.90;;;;;;5382018;23;20711;-76
2021/01/14 05:18:59;;;;;;;1999.90;999.90;;;1.10;99.90;;;;;;4897068;29;20286;-76
2021/01/14 05:21:32;;;;;;;1999.90;999.90;;;1.10;99.90;;;;;;4897530;29;20203;-76
2021/01/14 05:24:09;;;;;;;1999.90;999.90;;;1.10;99.90;;;;;;4897367;29;20255;-76
2021/01/14 05:26:37;;;;;;;1999.90;999.90;;;1.10;99.90;;;;;;4897405;29;20302;-76
2021/01/14 05:29:14;;;;;;;1999.90;999.90;;;1.00;99.90;;;;;;4897757;29;20199;-76
2021/01/14 05:31:42;;;;;;;1999.90;999.90;;;1.10;99.90;;;;;;4897331;29;20207;-76
2021/01/14 05:34:09;;;;;;;1999.90;999.90;;;1.10;99.90;;;;;;4897079;29;20208;-79
2021/01/14 05:36:56;;;;;;;1999.90;999.90;;;1.10;99.90;;;;;;4897176;29;20313;-76
2021/01/14 05:39:24;;;;;;;1999.90;999.90;;;1.10;99.90;;;;;;4894901;29;20207;-75
2021/01/14 05:41:51;;;;;;;1999.90;999.90;;;1.20;99.90;;;;;;4896430;29;20222;-76
2021/01/14 05:44:19;;;;;;;1999.90;999.90;;;1.20;99.90;;;;;;4896574;29;20279;-76
2021/01/14 05:46:46;;;;;;;1999.90;999.90;;;1.20;99.90;;;;;;4897031;29;20239;-77
2021/01/14 05:49:13;;;;;;;1999.90;999.90;;;1.20;99.90;;;;;;4896670;29;20582;-76
2021/01/14 05:51:40;;;;;;;1999.90;999.90;;;1.20;99.90;;;;;;4896697;29;20215;-77
2021/01/14 05:54:09;;;;;;;1999.90;999.90;;;1.20;99.90;;;;;;4896563;29;20251;-77
2021/01/14 05:56:40;;;;;;;1999.90;999.90;;;1.20;99.90;;;;;;4896554;29;20259;-77
2021/01/14 05:59:10;;;;;;;1999.90;999.90;;;1.20;99.90;;;;;;4896328;29;20207;-77
2021/01/14 06:01:38;;;;;;;1999.90;999.90;;;1.20;99.90;;;;;;4896761;29;20236;-77
2021/01/14 06:04:17;;;;;;;1999.90;999.90;;;1.30;99.90;;;;;;4895804;29;20231;-76
2021/01/14 06:06:48;;;;;;;1999.90;999.90;;;1.20;99.90;;;;;;4912763;29;20643;-77
2021/01/14 06:09:17;;;;;;;1999.90;999.90;;;1.30;99.90;;;;;;4916521;29;20214;-77
2021/01/14 06:11:44;;;;;;;1999.90;999.90;;;1.30;99.90;;;;;;4916064;29;20258;-77
2021/01/14 06:14:27;;;;;;;1999.90;999.90;;;1.30;99.90;;;;;;4915992;29;20254;-77
2021/01/14 06:16:55;;;;;;;1999.90;999.90;;;1.20;99.90;;;;;;4918560;29;20234;-78
2021/01/14 06:19:25;;;;;;;1999.90;999.90;;;1.20;99.90;;;;;;4919678;29;20679;-78
2021/01/14 06:21:55;;;;;;;1999.90;999.90;;;1.20;99.90;;;;;;4919301;29;20664;-75
2021/01/14 06:24:27;;;;;;;1999.90;999.90;;;1.20;99.90;;;;;;4919852;29;20222;-76
2021/01/14 06:26:56;;;;;;;1999.90;999.90;;;1.30;99.90;;;;;;4919473;29;20289;-76
2021/01/14 06:29:27;;;;;;;1999.90;999.90;;;1.30;99.90;;;;;;4919709;29;20211;-75
2021/01/14 06:32:10;;;;;;;1999.90;999.90;;;1.30;99.90;;;;;;4904317;29;20209;-76
2021/01/14 06:34:39;;;;;;;1999.90;999.90;;;1.40;99.90;;;;;;4900807;29;20267;-78
2021/01/14 06:37:09;;;;;;;1999.90;999.90;;;1.40;99.90;;;;;;4908803;29;20223;-77
2021/01/14 06:39:40;;;;;;;1999.90;999.90;;;1.40;99.90;;;;;;4901984;29;20219;-79
2021/01/14 06:42:15;;;;;;;1999.90;999.90;;;1.40;99.90;;;;;;4904157;29;20215;-78
2021/01/14 06:44:49;;;;;;;1999.90;999.90;;;1.40;99.90;;;;;;4904080;29;20231;-78
2021/01/14 11:30:46;;;;;;;1999.90;999.90;;;2.40;99.90;;;;;;5719977;23;20476;-80
2021/01/14 11:33:13;;;;;;;1999.90;999.90;;;2.50;99.90;;;;;;4926878;29;20258;-77
2021/01/14 11:35:40;;;;;;;1999.90;999.90;;;2.40;99.90;;;;;;4936610;29;20274;-75
2021/01/14 11:38:07;;;;;;;1999.90;999.90;;;2.60;99.90;;;;;;4936334;29;20210;-76
2021/01/14 11:40:34;;;;;;;1999.90;999.90;;;3.00;99.90;;;;;;4933582;29;20230;-76
2021/01/14 11:43:02;;;;;;;1999.90;999.90;;;2.30;99.90;;;;;;4919128;29;20206;-76
2021/01/14 11:45:28;;;;;;;1999.90;999.90;;;2.50;99.90;;;;;;4915656;29;20219;-76
2021/01/14 11:47:56;;;;;;;1999.90;999.90;;;2.70;99.90;;;;;;4902474;29;20260;-81
2021/01/14 11:50:23;;;;;;;1999.90;999.90;;;2.60;99.90;;;;;;4901700;29;20208;-80
2021/01/14 11:52:50;;;;;;;1999.90;999.90;;;2.80;99.90;;;;;;4901440;29;20198;-79
2021/01/14 11:55:17;;;;;;;1999.90;999.90;;;2.60;99.90;;;;;;4908230;29;20203;-80
2021/01/14 11:57:44;;;;;;;1999.90;999.90;;;2.60;99.90;;;;;;4909225;29;20255;-80
2021/01/14 12:00:12;;;;;;;1999.90;999.90;;;2.90;99.90;;;;;;4909502;29;20278;-79
2021/01/14 12:02:38;;;;;;;1999.90;999.90;;;2.70;99.90;;;;;;4906471;29;20203;-80
2021/01/14 12:05:07;;;;;;;1999.90;999.90;;;2.80;99.90;;;;;;4909205;29;20218;-80
2021/01/14 12:07:34;;;;;;;1999.90;999.90;;;2.50;99.90;;;;;;4910483;29;20195;-77
2021/01/14 12:10:01;;;;;;;1999.90;999.90;;;2.80;99.90;;;;;;4901352;29;20200;-77
2021/01/14 12:12:28;;;;;;;1999.90;999.90;;;2.50;99.90;;;;;;4899838;29;20227;-77
2021/01/14 12:14:55;;;;;;;1999.90;999.90;;;2.40;99.90;;;;;;4900378;29;20556;-78
2021/01/14 12:17:22;;;;;;;1999.90;999.90;;;2.80;99.90;;;;;;4899971;29;20203;-76
2021/01/14 12:19:49;;;;;;;1999.90;999.90;;;3.10;99.90;;;;;;4905898;29;20203;-79
2021/01/14 12:22:17;;;;;;;1999.90;999.90;;;2.70;99.90;;;;;;4916944;29;20230;-75
2021/01/14 12:24:44;;;;;;;1999.90;999.90;;;2.70;99.90;;;;;;4916913;29;20222;-75
2021/01/14 12:27:10;;;;;;;1999.90;999.90;;;3.10;99.90;;;;;;4917162;29;20206;-75
2021/01/14 12:29:37;;;;;;;1999.90;999.90;;;2.60;99.90;;;;;;4916811;29;20270;-75
2021/01/14 12:32:05;;;;;;;1999.90;999.90;;;2.70;99.90;;;;;;4917163;29;20294;-78
2021/01/14 12:34:32;;;;;;;1999.90;999.90;;;2.60;99.90;;;;;;4916840;29;20282;-75
2021/01/14 12:37:00;;;;;;;1999.90;999.90;;;2.80;99.90;;;;;;4916681;29;20294;-76
2021/01/14 12:39:28;;;;;;;1999.90;999.90;;;2.80;99.90;;;;;;4916650;29;20207;-77
2021/01/14 12:41:54;;;;;;;1999.90;999.90;;;2.80;99.90;;;;;;4918822;29;20235;-80
2021/01/14 12:44:21;;;;;;;1999.90;999.90;;;2.80;99.90;;;;;;4919704;29;20696;-80
2021/01/14 12:46:49;;;;;;;1999.90;999.90;;;3.00;99.90;;;;;;4919507;29;20751;-76
2021/01/14 12:49:18;;;;;;;1999.90;999.90;;;2.70;99.90;;;;;;4914256;29;20299;-75
2021/01/14 12:51:45;;;;;;;1999.90;999.90;;;2.80;99.90;;;;;;4915813;29;20598;-76
2021/01/14 12:54:13;;;;;;;1999.90;999.90;;;2.60;99.90;;;;;;4915280;29;20203;-75
2021/01/14 12:56:42;;;;;;;1999.90;999.90;;;3.00;99.90;;;;;;4916766;29;20207;-75
2021/01/14 12:59:09;;;;;;;1999.90;999.90;;;3.10;99.90;;;;;;4916677;29;20289;-76
2021/01/14 13:01:38;;;;;;;1999.90;999.90;;;2.70;99.90;;;;;;4917261;29;20661;-76
2021/01/14 13:04:06;;;;;;;1999.90;999.90;;;2.70;99.90;;;;;;4916477;29;20227;-76
2021/01/14 13:06:35;;;;;;;1999.90;999.90;;;2.90;99.90;;;;;;4916748;29;20211;-76
2021/01/14 13:09:04;;;;;;;1999.90;999.90;;;2.70;99.90;;;;;;4916267;29;20664;-76
2021/01/14 13:11:31;;;;;;;1999.90;999.90;;;2.90;99.90;;;;;;4916429;29;20716;-76
2021/01/14 13:13:59;;;;;;;1999.90;999.90;;;2.80;99.90;;;;;;4916408;29;20206;-77
2021/01/14 13:16:34;;;;;;;1999.90;999.90;;;3.10;99.90;;;;;;4916436;29;20303;-76
2021/01/14 13:19:02;;;;;;;1999.90;999.90;;;2.90;99.90;;;;;;4916371;29;20261;-76
2021/01/14 13:21:33;;;;;;;1999.90;999.90;;;3.00;99.90;;;;;;4916492;29;20767;-76
2021/01/14 13:24:02;;;;;;;1999.90;999.90;;;3.00;99.90;;;;;;4916779;29;20230;-76
2021/01/14 13:26:29;;;;;;;1999.90;999.90;;;3.10;99.90;;;;;;4916041;29;20211;-76
2021/01/14 13:28:56;;;;;;;1999.90;999.90;;;3.30;99.90;;;;;;4916301;29;20210;-76
2021/01/14 13:31:24;;;;;;;1999.90;999.90;;;3.40;99.90;;;;;;4916113;29;20245;-76
2021/01/14 13:33:51;;;;;;;1999.90;999.90;;;3.30;99.90;;;;;;4916257;29;20733;-76
2021/01/14 13:36:18;;;;;;;1999.90;999.90;;;3.20;99.90;;;;;;4916612;29;20293;-76
2021/01/14 13:38:45;;;;;;;1999.90;999.90;;;3.70;99.90;;;;;;4916602;29;20206;-76
2021/01/14 13:41:12;;;;;;;1999.90;999.90;;;3.40;99.90;;;;;;4916483;29;20722;-76
2021/01/14 13:43:39;;;;;;;1999.90;999.90;;;3.60;99.90;;;;;;4916323;29;20207;-76
2021/01/14 13:46:07;;;;;;;1999.90;999.90;;;3.40;99.90;;;;;;4916392;29;20302;-76
2021/01/14 13:48:34;;;;;;;1999.90;999.90;;;3.20;99.90;;;;;;4915911;29;20218;-76
2021/01/14 13:51:01;;;;;;;1999.90;999.90;;;3.10;99.90;;;;;;4916152;29;20655;-75
2021/01/14 13:53:28;;;;;;;1999.90;999.90;;;3.10;99.90;;;;;;4915941;29;20210;-75
2021/01/14 13:55:55;;;;;;;1999.90;999.90;;;3.20;99.90;;;;;;4915943;29;20203;-76
2021/01/14 13:58:22;;;;;;;1999.90;999.90;;;3.10;99.90;;;;;;4915549;29;20206;-76
2021/01/14 14:00:49;;;;;;;1999.90;999.90;;;3.40;99.90;;;;;;4915986;29;20309;-76
2021/01/14 14:03:19;;;;;;;1999.90;999.90;;;3.30;99.90;;;;;;4915815;29;20297;-75
2021/01/14 14:05:48;;;;;;;1999.90;999.90;;;3.00;99.90;;;;;;4915829;29;20286;-76
2021/01/14 14:08:15;;;;;;;1999.90;999.90;;;3.20;99.90;;;;;;4915658;29;20672;-76
2021/01/14 14:10:43;;;;;;;1999.90;999.90;;;3.30;99.90;;;;;;4915776;29;20227;-76
2021/01/14 14:13:10;;;;;;;1999.90;999.90;;;3.20;99.90;;;;;;4915820;29;20731;-76
2021/01/14 14:15:38;;;;;;;1999.90;999.90;;;3.20;99.90;;;;;;4915775;29;20684;-76
2021/01/14 14:18:05;;;;;;;1999.90;999.90;;;3.30;99.90;;;;;;4915694;29;20215;-76
2021/01/14 14:20:32;;;;;;;1999.90;999.90;;;3.20;99.90;;;;;;4915637;29;20707;-76
2021/01/14 14:23:00;;;;;;;1999.90;999.90;;;3.10;99.90;;;;;;4915666;29;20207;-76
2021/01/14 14:25:27;;;;;;;1999.90;999.90;;;3.00;99.90;;;;;;4915955;29;20653;-76
2021/01/14 14:27:54;;;;;;;1999.90;999.90;;;3.00;99.90;;;;;;4915623;29;20635;-76
2021/01/14 14:30:22;;;;;;;1999.90;999.90;;;2.90;99.90;;;;;;4915543;29;20238;-76
2021/01/14 14:32:49;;;;;;;1999.90;999.90;;;2.90;99.90;;;;;;4915896;29;20270;-76
2021/01/14 14:35:16;;;;;;;1999.90;999.90;;;3.10;99.90;;;;;;4915454;29;20669;-75
2021/01/14 14:37:42;;;;;;;1999.90;999.90;;;2.90;99.90;;;;;;4916777;29;20492;-76
2021/01/14 14:40:13;;;;;;;1999.90;999.90;;;3.00;99.90;;;;;;4926126;29;20740;-78
2021/01/14 14:42:40;;;;;;;1999.90;999.90;;;2.80;99.90;;;;;;4928749;29;20210;-79
2021/01/14 14:45:08;;;;;;;1999.90;999.90;;;2.90;99.90;;;;;;4930265;29;20294;-78
2021/01/14 14:47:46;;;;;;;1999.90;999.90;;;2.80;99.90;;;;;;4929203;29;20215;-79
2021/01/14 14:50:13;;;;;;;1999.90;999.90;;;2.80;99.90;;;;;;4927810;29;20206;-80
2021/01/14 14:52:40;;;;;;;1999.90;999.90;;;2.90;99.90;;;;;;4927746;29;20214;-78
2021/01/14 14:55:08;;;;;;;1999.90;999.90;;;2.90;99.90;;;;;;4920463;29;20195;-79
2021/01/14 14:57:36;;;;;;;1999.90;999.90;;;2.70;99.90;;;;;;4907344;29;20200;-79
2021/01/14 15:00:04;;;;;;;1999.90;999.90;;;2.90;99.90;;;;;;4907711;29;20613;-79
2021/01/14 15:02:31;;;;;;;1999.90;999.90;;;2.60;99.90;;;;;;4907909;29;20219;-79
2021/01/14 15:04:58;;;;;;;1999.90;999.90;;;2.80;99.90;;;;;;4903919;29;20258;-77
2021/01/14 15:07:25;;;;;;;1999.90;999.90;;;2.90;99.90;;;;;;4897981;29;20203;-77
2021/01/14 15:09:51;;;;;;;1999.90;999.90;;;2.80;99.90;;;;;;4900151;29;20247;-76
2021/01/14 15:12:18;;;;;;;1999.90;999.90;;;3.20;99.90;;;;;;4901018;29;20232;-76
2021/01/14 15:14:46;;;;;;;1999.90;999.90;;;3.10;99.90;;;;;;4899758;29;20227;-77
2021/01/14 15:17:13;;;;;;;1999.90;999.90;;;2.70;99.90;;;;;;4899515;29;20195;-76
2021/01/14 15:19:40;;;;;;;1999.90;999.90;;;2.70;99.90;;;;;;4899576;29;20203;-76
2021/01/14 15:22:08;;;;;;;1999.90;999.90;;;2.70;99.90;;;;;;4908730;29;20227;-78
2021/01/14 15:24:35;;;;;;;1999.90;999.90;;;2.80;99.90;;;;;;4906792;29;20219;-79
2021/01/14 15:27:02;;;;;;;1999.90;999.90;;;2.90;99.90;;;;;;4902241;29;20200;-76
2021/01/14 15:29:29;;;;;;;1999.90;999.90;;;3.20;99.90;;;;;;4900550;29;20217;-76
2021/01/14 15:31:57;;;;;;;1999.90;999.90;;;3.20;99.90;;;;;;4906813;29;20230;-76
2021/01/14 15:34:25;;;;;;;1999.90;999.90;;;2.60;99.90;;;;;;4915636;29;20202;-77
2021/01/14 15:36:52;;;;;;;1999.90;999.90;;;2.90;99.90;;;;;;4926604;29;20583;-78
2021/01/14 15:39:19;;;;;;;1999.90;999.90;;;2.70;99.90;;;;;;4926773;29;20735;-78
2021/01/14 15:41:46;;;;;;;1999.90;999.90;;;2.60;99.90;;;;;;4924205;29;20278;-77
2021/01/14 15:44:12;;;;;;;1999.90;999.90;;;2.60;99.90;;;;;;4920964;29;20262;-76
2021/01/14 15:46:39;;;;;;;1999.90;999.90;;;2.60;99.90;;;;;;4920524;29;20210;-77
2021/01/14 15:49:07;;;;;;;1999.90;999.90;;;2.80;99.90;;;;;;4921278;29;20207;-77
2021/01/14 15:51:34;;;;;;;1999.90;999.90;;;2.60;99.90;;;;;;4922857;29;20226;-77
2021/01/14 15:54:03;;;;;;;1999.90;999.90;;;2.90;99.90;;;;;;4921294;29;20207;-75
2021/01/14 15:56:31;;;;;;;1999.90;999.90;;;2.70;99.90;;;;;;4923655;29;20262;-76
2021/01/14 15:59:27;;;;;;;1999.90;999.90;;;2.70;99.90;;;;;;4918384;29;20214;-77
2021/01/14 16:01:58;;;;;;;1999.90;999.90;;;2.60;99.90;;;;;;4918919;29;20244;-76
2021/01/14 16:04:26;;;;;;;1999.90;999.90;;;2.60;99.90;;;;;;4922586;29;20226;-77
2021/01/14 16:06:54;;;;;;;1999.90;999.90;;;2.90;99.90;;;;;;4918521;29;20242;-78
2021/01/14 16:09:21;;;;;;;1999.90;999.90;;;2.60;99.90;;;;;;4918674;29;20262;-74
2021/01/14 16:11:49;;;;;;;1999.90;999.90;;;2.60;99.90;;;;;;4916042;29;20230;-75
2021/01/14 16:14:16;;;;;;;1999.90;999.90;;;2.70;99.90;;;;;;4915957;29;20203;-75
2021/01/14 16:16:44;;;;;;;1999.90;999.90;;;2.60;99.90;;;;;;4917445;29;20668;-75
2021/01/14 16:19:10;;;;;;;1999.90;999.90;;;2.90;99.90;;;;;;4917412;29;20619;-74
2021/01/14 16:21:38;;;;;;;1999.90;999.90;;;2.80;99.90;;;;;;4917254;29;20242;-74
2021/01/14 16:24:07;;;;;;;1999.90;999.90;;;2.70;99.90;;;;;;4917390;29;20719;-75
2021/01/14 16:26:33;;;;;;;1999.90;999.90;;;2.80;99.90;;;;;;4917472;29;20211;-76
2021/01/14 16:29:15;;;;;;;1999.90;999.90;;;2.80;99.90;;;;;;4917154;29;20210;-75
2021/01/14 16:31:46;;;;;;;1999.90;999.90;;;2.90;99.90;;;;;;4917408;29;20286;-75
2021/01/14 16:34:15;;;;;;;1999.90;999.90;;;2.70;99.90;;;;;;4918275;29;20210;-75
2021/01/14 16:36:42;;;;;;;1999.90;999.90;;;2.70;99.90;;;;;;4918244;29;20863;-76
2021/01/14 16:39:11;;;;;;;1999.90;999.90;;;2.70;99.90;;;;;;4917837;29;20218;-79
2021/01/14 16:41:39;;;;;;;1999.90;999.90;;;2.50;99.90;;;;;;4917296;29;20268;-76
2021/01/14 16:44:07;;;;;;;1999.90;999.90;;;2.50;99.90;;;;;;4902060;29;20203;-76
2021/01/14 16:46:36;;;;;;;1999.90;999.90;;;2.60;99.90;;;;;;4900847;29;20231;-79
2021/01/14 16:49:05;;;;;;;1999.90;999.90;;;2.60;99.90;;;;;;4899498;29;20207;-76
2021/01/14 16:51:32;;;;;;;1999.90;999.90;;;2.60;99.90;;;;;;4899315;29;20231;-77
2021/01/14 16:54:00;;;;;;;1999.90;999.90;;;2.70;99.90;;;;;;4898831;29;20214;-77
2021/01/14 16:56:27;;;;;;;1999.90;999.90;;;2.70;99.90;;;;;;4898811;29;20732;-78
2021/01/14 16:58:55;;;;;;;1999.90;999.90;;;2.70;99.90;;;;;;4898196;29;20298;-76
2021/01/14 17:01:24;;;;;;;1999.90;999.90;;;2.90;99.90;;;;;;4898558;29;20645;-80
2021/01/14 17:03:52;;;;;;;1999.90;999.90;;;2.60;99.90;;;;;;4903334;29;20207;-78
2021/01/14 17:06:20;;;;;;;1999.90;999.90;;;2.40;99.90;;;;;;4902841;29;20290;-79
2021/01/14 17:08:48;;;;;;;1999.90;999.90;;;2.50;99.90;;;;;;4904073;29;20267;-78
2021/01/14 17:11:16;;;;;;;1999.90;999.90;;;2.60;99.90;;;;;;4900310;29;20664;-78
2021/01/14 17:13:44;;;;;;;1999.90;999.90;;;2.40;99.90;;;;;;4900891;29;20207;-79
2021/01/14 17:16:13;;;;;;;1999.90;999.90;;;2.40;99.90;;;;;;4901657;29;20207;-78
2021/01/14 17:18:41;;;;;;;1999.90;999.90;;;2.50;99.90;;;;;;4901090;29;20301;-77
2021/01/14 17:21:09;;;;;;;1999.90;999.90;;;2.70;99.90;;;;;;4896699;29;20283;-78
2021/01/14 17:23:36;;;;;;;1999.90;999.90;;;2.40;99.90;;;;;;4898773;29;20207;-77
2021/01/14 17:26:04;;;;;;;1999.90;999.90;;;2.50;99.90;;;;;;4899682;29;20314;-78
2021/01/14 17:28:31;;;;;;;1999.90;999.90;;;2.50;99.90;;;;;;4901296;29;20207;-78
2021/01/14 17:30:58;;;;;;;1999.90;999.90;;;2.70;99.90;;;;;;4909351;29;20242;-81
2021/01/14 17:33:25;;;;;;;1999.90;999.90;;;2.40;99.90;;;;;;4907762;29;20267;-80
2021/01/14 17:35:53;;;;;;;1999.90;999.90;;;2.50;99.90;;;;;;4902310;29;20205;-82
2021/01/14 17:38:20;;;;;;;1999.90;999.90;;;2.60;99.90;;;;;;4902432;29;20239;-80
2021/01/14 17:40:46;;;;;;;1999.90;999.90;;;2.60;99.90;;;;;;4902210;29;20712;-81
2021/01/14 17:43:14;;;;;;;1999.90;999.90;;;2.20;99.90;;;;;;4901821;29;20318;-81
2021/01/14 17:45:42;;;;;;;1999.90;999.90;;;2.70;99.90;;;;;;4899356;29;20642;-81
2021/01/14 17:48:09;;;;;;;1999.90;999.90;;;2.40;99.90;;;;;;4912870;29;20199;-79
2021/01/14 17:50:36;;;;;;;1999.90;999.90;;;2.30;99.90;;;;;;4908346;29;20244;-78
2021/01/14 17:53:03;;;;;;;1999.90;999.90;;;2.60;99.90;;;;;;4908218;29;20211;-80
2021/01/14 17:55:30;;;;;;;1999.90;999.90;;;2.20;99.90;;;;;;4910203;29;20270;-78
2021/01/14 17:57:59;;;;;;;1999.90;999.90;;;2.40;99.90;;;;;;4896921;29;20276;-77
2021/01/14 18:00:26;;;;;;;1999.90;999.90;;;2.40;99.90;;;;;;4895414;29;20270;-77
2021/01/14 18:02:55;;;;;;;1999.90;999.90;;;2.40;99.90;;;;;;4896750;29;20298;-77
2021/01/14 18:05:22;;;;;;;1999.90;999.90;;;2.60;99.90;;;;;;4896555;29;20719;-77
2021/01/14 18:07:48;;;;;;;1999.90;999.90;;;2.60;99.90;;;;;;4896555;29;20200;-77
2021/01/14 18:10:17;;;;;;;1999.90;999.90;;;2.20;99.90;;;;;;4896376;29;20571;-77
2021/01/14 18:12:45;;;;;;;1999.90;999.90;;;2.20;99.90;;;;;;4899106;29;20255;-77
2021/01/14 18:15:13;;;;;;;1999.90;999.90;;;2.70;99.90;;;;;;4901547;29;20207;-79
2021/01/14 18:17:42;;;;;;;1999.90;999.90;;;2.20;99.90;;;;;;4900098;29;20234;-77
2021/01/14 18:20:12;;;;;;;1999.90;999.90;;;2.20;99.90;;;;;;4900804;29;20196;-78
2021/01/14 18:22:40;;;;;;;1999.90;999.90;;;2.10;99.90;;;;;;4899439;29;20254;-77
2021/01/14 18:25:11;;;;;;;1999.90;999.90;;;2.70;99.90;;;;;;4900803;29;20269;-75
2021/01/14 18:27:39;;;;;;;1999.90;999.90;;;2.00;99.90;;;;;;4899465;29;20214;-77
2021/01/14 18:30:08;;;;;;;1999.90;999.90;;;2.20;99.90;;;;;;4900019;29;20203;-76
2021/01/14 18:32:36;;;;;;;1999.90;999.90;;;2.00;99.90;;;;;;4899487;29;20243;-76
2021/01/14 18:35:05;;;;;;;1999.90;999.90;;;2.40;99.90;;;;;;4898062;29;20207;-77
2021/01/14 18:37:41;;;;;;;1999.90;999.90;;;2.10;99.90;;;;;;4899309;29;20207;-77
2021/01/14 18:40:09;;;;;;;1999.90;999.90;;;1.80;99.90;;;;;;4898373;29;20203;-77
2021/01/14 18:42:36;;;;;;;1999.90;999.90;;;2.00;99.90;;;;;;4899822;29;20230;-77
2021/01/14 18:45:05;;;;;;;1999.90;999.90;;;2.10;99.90;;;;;;4900656;29;20227;-77
2021/01/14 18:47:34;;;;;;;1999.90;999.90;;;2.10;99.90;;;;;;4900171;29;20223;-77
2021/01/14 18:50:05;;;;;;;1999.90;999.90;;;2.00;99.90;;;;;;4899830;29;20673;-77
2021/01/14 18:52:32;;;;;;;1999.90;999.90;;;2.20;99.90;;;;;;4900794;29;20227;-76
2021/01/14 18:55:00;;;;;;;1999.90;999.90;;;2.40;99.90;;;;;;4899524;29;20204;-76
2021/01/14 18:57:27;;;;;;;1999.90;999.90;;;2.00;99.90;;;;;;4899581;29;20209;-77
2021/01/14 18:59:54;;;;;;;1999.90;999.90;;;1.80;99.90;;;;;;4898491;29;20207;-77
2021/01/14 19:02:21;;;;;;;1999.90;999.90;;;1.80;99.90;;;;;;4897246;29;20287;-79
2021/01/14 19:04:48;;;;;;;1999.90;999.90;;;2.00;99.90;;;;;;4897519;29;20211;-80
2021/01/14 19:07:16;;;;;;;1999.90;999.90;;;1.70;99.90;;;;;;4900255;29;20268;-76
2021/01/14 19:09:43;;;;;;;1999.90;999.90;;;2.40;99.90;;;;;;4903235;29;20552;-80
2021/01/14 19:12:11;;;;;;;1999.90;999.90;;;1.80;99.90;;;;;;4905106;29;20239;-80
2021/01/14 19:14:38;;;;;;;1999.90;999.90;;;1.70;99.90;;;;;;4904461;29;20737;-79
2021/01/14 19:17:05;;;;;;;1999.90;999.90;;;1.90;99.90;;;;;;4902290;29;20208;-76
2021/01/14 19:19:32;;;;;;;1999.90;999.90;;;1.90;99.90;;;;;;4899557;29;20203;-78
2021/01/14 19:21:59;;;;;;;1999.90;999.90;;;2.00;99.90;;;;;;4907536;29;20258;-80
2021/01/14 19:24:26;;;;;;;1999.90;999.90;;;1.70;99.90;;;;;;4905499;29;20271;-80
2021/01/14 19:26:55;;;;;;;1999.90;999.90;;;1.80;99.90;;;;;;4911275;29;20227;-80
2021/01/14 19:29:23;;;;;;;1999.90;999.90;;;1.60;99.90;;;;;;4910068;29;20211;-81
2021/01/14 19:31:50;;;;;;;1999.90;999.90;;;1.80;99.90;;;;;;4902328;29;20239;-79
2021/01/14 19:34:21;;;;;;;1999.90;999.90;;;2.00;99.90;;;;;;4906674;29;20214;-77
2021/01/14 19:36:48;;;;;;;1999.90;999.90;;;1.60;99.90;;;;;;4907363;29;20247;-76
2021/01/14 19:39:15;;;;;;;1999.90;999.90;;;2.00;99.90;;;;;;4901014;29;20207;-79
2021/01/14 19:41:42;;;;;;;1999.90;999.90;;;2.00;99.90;;;;;;4902415;29;20251;-78
2021/01/14 19:44:09;;;;;;;1999.90;999.90;;;2.00;99.90;;;;;;4898463;29;20251;-76
2021/01/14 19:46:38;;;;;;;1999.90;999.90;;;1.70;99.90;;;;;;4899158;29;20635;-78
2021/01/14 19:49:07;;;;;;;1999.90;999.90;;;1.70;99.90;;;;;;4899796;29;20203;-76
2021/01/14 19:51:38;;;;;;;1999.90;999.90;;;1.70;99.90;;;;;;4901498;29;20227;-78
2021/01/14 19:54:05;;;;;;;1999.90;999.90;;;1.80;99.90;;;;;;4900139;29;20215;-76
2021/01/14 19:56:34;;;;;;;1999.90;999.90;;;1.70;99.90;;;;;;4898813;29;20634;-78
2021/01/14 19:59:02;;;;;;;1999.90;999.90;;;1.90;99.90;;;;;;4900239;29;20211;-78
2021/01/14 20:01:29;;;;;;;1999.90;999.90;;;1.80;99.90;;;;;;4899554;29;20234;-75
2021/01/14 20:03:57;;;;;;;1999.90;999.90;;;1.80;99.90;;;;;;4898707;29;20207;-75
2021/01/14 20:06:24;;;;;;;1999.90;999.90;;;1.80;99.90;;;;;;4898878;29;20231;-77
2021/01/14 20:08:51;;;;;;;1999.90;999.90;;;1.80;99.90;;;;;;4900068;29;20211;-78
2021/01/14 20:11:26;;;;;;;1999.90;999.90;;;1.90;99.90;;;;;;4900868;29;20235;-78
2021/01/14 20:13:53;;;;;;;1999.90;999.90;;;1.80;99.90;;;;;;4900678;29;20618;-77
2021/01/14 20:16:20;;;;;;;1999.90;999.90;;;1.90;99.90;;;;;;4899865;29;20208;-79
2021/01/14 20:18:47;;;;;;;1999.90;999.90;;;2.00;99.90;;;;;;4900598;29;20717;-76
2021/01/14 20:21:15;;;;;;;1999.90;999.90;;;1.90;99.90;;;;;;4895675;29;20314;-76
2021/01/14 20:23:43;;;;;;;1999.90;999.90;;;2.20;99.90;;;;;;4898086;29;20211;-75
2021/01/14 20:26:11;;;;;;;1999.90;999.90;;;2.10;99.90;;;;;;4899091;29;20318;-78
2021/01/14 20:28:38;;;;;;;1999.90;999.90;;;1.80;99.90;;;;;;4900446;29;20211;-76
2021/01/14 20:31:06;;;;;;;1999.90;999.90;;;2.00;99.90;;;;;;4898185;29;20227;-76
2021/01/14 20:33:33;;;;;;;1999.90;999.90;;;2.00;99.90;;;;;;4899390;29;20207;-78
2021/01/14 20:36:00;;;;;;;1999.90;999.90;;;1.90;99.90;;;;;;4895173;29;20255;-76
2021/01/14 20:38:27;;;;;;;1999.90;999.90;;;1.80;99.90;;;;;;4897806;29;20207;-76
2021/01/14 20:40:54;;;;;;;1999.90;999.90;;;2.20;99.90;;;;;;4898354;29;20270;-76
2021/01/14 20:43:21;;;;;;;1999.90;999.90;;;1.80;99.90;;;;;;4899950;29;20236;-78
2021/01/14 20:45:48;;;;;;;1999.90;999.90;;;1.90;99.90;;;;;;4899200;29;20764;-76
2021/01/14 20:48:15;;;;;;;1999.90;999.90;;;2.10;99.90;;;;;;4897642;29;20208;-76
2021/01/14 20:50:42;;;;;;;1999.90;999.90;;;2.10;99.90;;;;;;4897844;29;20227;-78
2021/01/14 20:53:08;;;;;;;1999.90;999.90;;;2.10;99.90;;;;;;4899435;29;20620;-76
2021/01/14 20:55:36;;;;;;;1999.90;999.90;;;2.50;99.90;;;;;;4897824;29;20565;-75
2021/01/14 20:58:03;;;;;;;1999.90;999.90;;;2.10;99.90;;;;;;4897329;29;20227;-75
2021/01/14 21:00:30;;;;;;;1999.90;999.90;;;2.10;99.90;;;;;;4897650;29;20668;-78
2021/01/14 21:02:57;;;;;;;1999.90;999.90;;;2.30;99.90;;;;;;4900025;29;20247;-76
2021/01/14 21:05:24;;;;;;;1999.90;999.90;;;2.40;99.90;;;;;;4897114;29;20223;-76
2021/01/14 21:07:51;;;;;;;1999.90;999.90;;;2.20;99.90;;;;;;4898528;29;20239;-75
2021/01/14 21:10:18;;;;;;;1999.90;999.90;;;2.30;99.90;;;;;;4897490;29;20238;-76
2021/01/14 21:12:49;;;;;;;1999.90;999.90;;;2.70;99.90;;;;;;4897853;29;20203;-77
2021/01/14 21:15:16;;;;;;;1999.90;999.90;;;2.60;99.90;;;;;;4895855;29;20254;-77
2021/01/14 21:17:43;;;;;;;1999.90;999.90;;;2.00;99.90;;;;;;4896604;29;20267;-78
2021/01/14 21:20:11;;;;;;;1999.90;999.90;;;2.10;99.90;;;;;;4896374;29;20199;-78
2021/01/14 21:22:40;;;;;;;1999.90;999.90;;;2.00;99.90;;;;;;4905539;29;20247;-77
2021/01/14 21:25:08;;;;;;;1999.90;999.90;;;2.10;99.90;;;;;;4905029;29;20247;-77
2021/01/14 21:27:41;;;;;;;1999.90;999.90;;;2.10;99.90;;;;;;4906176;29;20203;-77
2021/01/14 21:30:11;;;;;;;1999.90;999.90;;;2.00;99.90;;;;;;4906862;29;20692;-77
2021/01/14 21:32:39;;;;;;;1999.90;999.90;;;2.10;99.90;;;;;;4907525;29;20649;-77
2021/01/14 21:35:08;;;;;;;1999.90;999.90;;;2.30;99.90;;;;;;4905432;29;20203;-76
2021/01/14 21:37:37;;;;;;;1999.90;999.90;;;2.00;99.90;;;;;;4907118;29;20672;-77
2021/01/14 21:40:06;;;;;;;1999.90;999.90;;;2.00;99.90;;;;;;4908327;29;20540;-77
2021/01/14 21:42:33;;;;;;;1999.90;999.90;;;2.10;99.90;;;;;;4906586;29;20701;-75
2021/01/14 21:45:00;;;;;;;1999.90;999.90;;;2.10;99.90;;;;;;4902924;29;20203;-76
2021/01/14 21:47:33;;;;;;;1999.90;999.90;;;2.20;99.90;;;;;;4896537;29;20278;-76
2021/01/14 21:50:00;;;;;;;1999.90;999.90;;;2.50;99.90;;;;;;4896576;29;20740;-76
2021/01/14 21:52:28;;;;;;;1999.90;999.90;;;2.30;99.90;;;;;;4896706;29;20215;-76
2021/01/14 21:54:55;;;;;;;1999.90;999.90;;;2.30;99.90;;;;;;4896720;29;20199;-76
2021/01/14 21:57:22;;;;;;;1999.90;999.90;;;2.60;99.90;;;;;;4896387;29;20661;-76
2021/01/14 21:59:49;;;;;;;1999.90;999.90;;;2.60;99.90;;;;;;4896480;29;20669;-76
